sensor_id;sensor_type;location;lat;lon;timestamp;temperature;humidity
35746;DHT22;21870;42.812;74.628;2023-06-24T00:02:20;20.90;86.20
35746;DHT22;21870;42.812;74.628;2023-06-24T00:04:50;20.90;86.10
35746;DHT22;21870;42.812;74.628;2023-06-24T00:07:17;20.90;86.20
35746;DHT22;21870;42.812;74.628;2023-06-24T00:09:43;20.80;86.00
35746;DHT22;21870;42.812;74.628;2023-06-24T00:12:09;20.80;86.30
35746;DHT22;21870;42.812;74.628;2023-06-24T00:14:37;20.80;86.10
35746;DHT22;21870;42.812;74.628;2023-06-24T00:17:06;20.80;86.50
35746;DHT22;21870;42.812;74.628;2023-06-24T00:19:33;20.80;86.10
35746;DHT22;21870;42.812;74.628;2023-06-24T00:22:00;20.80;86.20
35746;DHT22;21870;42.812;74.628;2023-06-24T00:24:29;20.80;86.60
35746;DHT22;21870;42.812;74.628;2023-06-24T00:26:56;20.80;86.70
35746;DHT22;21870;42.812;74.628;2023-06-24T00:29:22;20.80;86.50
35746;DHT22;21870;42.812;74.628;2023-06-24T00:31:48;20.90;86.90
35746;DHT22;21870;42.812;74.628;2023-06-24T00:34:14;20.90;86.70
35746;DHT22;21870;42.812;74.628;2023-06-24T00:36:40;20.80;86.40
35746;DHT22;21870;42.812;74.628;2023-06-24T00:39:06;20.90;87.00
35746;DHT22;21870;42.812;74.628;2023-06-24T00:41:34;20.90;87.20
35746;DHT22;21870;42.812;74.628;2023-06-24T00:44:01;20.90;87.60
35746;DHT22;21870;42.812;74.628;2023-06-24T00:46:29;20.90;87.10
35746;DHT22;21870;42.812;74.628;2023-06-24T00:48:58;20.90;87.10
35746;DHT22;21870;42.812;74.628;2023-06-24T00:51:24;20.90;87.40
35746;DHT22;21870;42.812;74.628;2023-06-24T00:53:56;20.90;87.60
35746;DHT22;21870;42.812;74.628;2023-06-24T00:56:28;20.90;87.60
35746;DHT22;21870;42.812;74.628;2023-06-24T00:58:58;20.90;87.30
35746;DHT22;21870;42.812;74.628;2023-06-24T01:01:29;20.90;87.70
35746;DHT22;21870;42.812;74.628;2023-06-24T01:04:00;20.90;87.90
35746;DHT22;21870;42.812;74.628;2023-06-24T01:06:27;20.90;87.90
35746;DHT22;21870;42.812;74.628;2023-06-24T01:08:58;20.90;87.70
35746;DHT22;21870;42.812;74.628;2023-06-24T01:11:27;20.90;88.10
35746;DHT22;21870;42.812;74.628;2023-06-24T01:13:53;20.90;88.40
35746;DHT22;21870;42.812;74.628;2023-06-24T01:17:14;20.90;87.80
35746;DHT22;21870;42.812;74.628;2023-06-24T01:27:51;20.80;88.90
35746;DHT22;21870;42.812;74.628;2023-06-24T01:33:14;20.80;90.00
35746;DHT22;21870;42.812;74.628;2023-06-24T01:35:45;20.80;89.30
35746;DHT22;21870;42.812;74.628;2023-06-24T01:38:58;20.90;89.90
35746;DHT22;21870;42.812;74.628;2023-06-24T01:41:36;20.90;90.00
35746;DHT22;21870;42.812;74.628;2023-06-24T01:44:07;20.90;90.00
35746;DHT22;21870;42.812;74.628;2023-06-24T01:46:35;21.00;89.80
35746;DHT22;21870;42.812;74.628;2023-06-24T01:49:04;21.00;89.70
35746;DHT22;21870;42.812;74.628;2023-06-24T01:51:34;21.00;90.00
35746;DHT22;21870;42.812;74.628;2023-06-24T01:54:05;21.00;90.10
35746;DHT22;21870;42.812;74.628;2023-06-24T01:56:33;21.10;89.80
35746;DHT22;21870;42.812;74.628;2023-06-24T01:59:02;21.10;90.10
35746;DHT22;21870;42.812;74.628;2023-06-24T02:01:32;21.10;90.30
35746;DHT22;21870;42.812;74.628;2023-06-24T02:04:01;21.10;90.20
35746;DHT22;21870;42.812;74.628;2023-06-24T02:06:29;21.10;89.90
35746;DHT22;21870;42.812;74.628;2023-06-24T02:08:56;21.10;90.10
35746;DHT22;21870;42.812;74.628;2023-06-24T02:11:28;21.10;90.00
35746;DHT22;21870;42.812;74.628;2023-06-24T02:13:56;21.20;89.80
35746;DHT22;21870;42.812;74.628;2023-06-24T02:16:24;21.20;90.00
35746;DHT22;21870;42.812;74.628;2023-06-24T02:18:52;21.30;89.70
35746;DHT22;21870;42.812;74.628;2023-06-24T02:21:19;21.30;90.00
35746;DHT22;21870;42.812;74.628;2023-06-24T02:23:49;21.30;90.20
35746;DHT22;21870;42.812;74.628;2023-06-24T02:26:16;21.30;90.00
35746;DHT22;21870;42.812;74.628;2023-06-24T02:28:44;21.30;90.00
35746;DHT22;21870;42.812;74.628;2023-06-24T02:31:14;21.30;90.10
35746;DHT22;21870;42.812;74.628;2023-06-24T02:33:41;21.40;90.20
35746;DHT22;21870;42.812;74.628;2023-06-24T02:36:07;21.50;90.00
35746;DHT22;21870;42.812;74.628;2023-06-24T02:38:34;21.50;90.00
35746;DHT22;21870;42.812;74.628;2023-06-24T02:41:00;21.70;89.70
35746;DHT22;21870;42.812;74.628;2023-06-24T02:43:30;21.70;89.70
35746;DHT22;21870;42.812;74.628;2023-06-24T02:45:57;21.80;90.10
35746;DHT22;21870;42.812;74.628;2023-06-24T02:48:24;21.90;90.00
35746;DHT22;21870;42.812;74.628;2023-06-24T02:50:51;22.00;89.10
35746;DHT22;21870;42.812;74.628;2023-06-24T02:53:17;22.00;89.20
35746;DHT22;21870;42.812;74.628;2023-06-24T02:55:44;22.20;89.20
35746;DHT22;21870;42.812;74.628;2023-06-24T02:58:11;22.40;90.20
35746;DHT22;21870;42.812;74.628;2023-06-24T03:00:38;22.50;88.40
35746;DHT22;21870;42.812;74.628;2023-06-24T03:03:05;22.50;88.40
35746;DHT22;21870;42.812;74.628;2023-06-24T03:05:32;22.60;88.20
35746;DHT22;21870;42.812;74.628;2023-06-24T03:07:59;22.70;87.70
35746;DHT22;21870;42.812;74.628;2023-06-24T03:10:26;22.70;88.70
35746;DHT22;21870;42.812;74.628;2023-06-24T03:12:52;22.80;88.00
35746;DHT22;21870;42.812;74.628;2023-06-24T03:15:19;23.00;87.60
35746;DHT22;21870;42.812;74.628;2023-06-24T03:17:46;23.10;90.00
35746;DHT22;21870;42.812;74.628;2023-06-24T03:20:12;23.40;88.80
35746;DHT22;21870;42.812;74.628;2023-06-24T03:22:38;23.70;88.30
35746;DHT22;21870;42.812;74.628;2023-06-24T03:25:04;24.00;86.30
35746;DHT22;21870;42.812;74.628;2023-06-24T03:27:30;24.10;86.30
35746;DHT22;21870;42.812;74.628;2023-06-24T03:29:57;24.30;86.10
35746;DHT22;21870;42.812;74.628;2023-06-24T03:32:23;24.40;85.60
35746;DHT22;21870;42.812;74.628;2023-06-24T03:34:49;24.50;86.40
35746;DHT22;21870;42.812;74.628;2023-06-24T03:37:15;24.60;84.50
35746;DHT22;21870;42.812;74.628;2023-06-24T03:39:41;24.70;84.50
35746;DHT22;21870;42.812;74.628;2023-06-24T03:42:08;24.80;84.10
35746;DHT22;21870;42.812;74.628;2023-06-24T03:44:34;24.80;85.40
35746;DHT22;21870;42.812;74.628;2023-06-24T03:47:00;24.60;86.50
35746;DHT22;21870;42.812;74.628;2023-06-24T03:49:26;24.50;86.60
35746;DHT22;21870;42.812;74.628;2023-06-24T03:51:52;24.50;84.80
35746;DHT22;21870;42.812;74.628;2023-06-24T03:54:18;24.60;85.20
35746;DHT22;21870;42.812;74.628;2023-06-24T03:56:44;24.60;84.10
35746;DHT22;21870;42.812;74.628;2023-06-24T03:59:10;24.50;85.00
35746;DHT22;21870;42.812;74.628;2023-06-24T04:01:36;24.60;85.20
35746;DHT22;21870;42.812;74.628;2023-06-24T04:04:03;24.60;85.30
35746;DHT22;21870;42.812;74.628;2023-06-24T04:06:29;24.60;87.10
35746;DHT22;21870;42.812;74.628;2023-06-24T04:08:55;24.70;86.00
35746;DHT22;21870;42.812;74.628;2023-06-24T04:11:21;24.60;84.90
35746;DHT22;21870;42.812;74.628;2023-06-24T04:13:47;24.80;84.20
35746;DHT22;21870;42.812;74.628;2023-06-24T04:16:14;24.70;87.10
35746;DHT22;21870;42.812;74.628;2023-06-24T04:18:40;24.60;88.90
35746;DHT22;21870;42.812;74.628;2023-06-24T04:21:06;24.60;86.90
35746;DHT22;21870;42.812;74.628;2023-06-24T04:23:33;24.70;86.70
35746;DHT22;21870;42.812;74.628;2023-06-24T04:25:59;25.00;85.40
35746;DHT22;21870;42.812;74.628;2023-06-24T04:28:25;25.20;86.40
35746;DHT22;21870;42.812;74.628;2023-06-24T04:30:52;25.50;86.90
35746;DHT22;21870;42.812;74.628;2023-06-24T04:33:18;25.50;84.20
35746;DHT22;21870;42.812;74.628;2023-06-24T04:35:44;25.60;85.10
35746;DHT22;21870;42.812;74.628;2023-06-24T04:38:10;25.80;87.60
35746;DHT22;21870;42.812;74.628;2023-06-24T04:40:36;26.00;85.40
35746;DHT22;21870;42.812;74.628;2023-06-24T04:43:02;26.20;85.90
35746;DHT22;21870;42.812;74.628;2023-06-24T04:45:29;26.30;82.70
35746;DHT22;21870;42.812;74.628;2023-06-24T04:47:55;26.40;85.00
35746;DHT22;21870;42.812;74.628;2023-06-24T04:50:21;26.50;83.30
35746;DHT22;21870;42.812;74.628;2023-06-24T04:52:52;26.50;83.80
35746;DHT22;21870;42.812;74.628;2023-06-24T04:55:21;26.60;83.80
35746;DHT22;21870;42.812;74.628;2023-06-24T04:57:47;26.70;85.40
35746;DHT22;21870;42.812;74.628;2023-06-24T05:00:14;26.60;84.30
35746;DHT22;21870;42.812;74.628;2023-06-24T05:02:40;26.70;84.10
35746;DHT22;21870;42.812;74.628;2023-06-24T05:05:06;26.80;84.40
35746;DHT22;21870;42.812;74.628;2023-06-24T05:07:33;27.00;83.60
35746;DHT22;21870;42.812;74.628;2023-06-24T05:09:59;27.10;84.20
35746;DHT22;21870;42.812;74.628;2023-06-24T05:12:25;27.10;82.40
35746;DHT22;21870;42.812;74.628;2023-06-24T05:14:51;27.00;82.90
35746;DHT22;21870;42.812;74.628;2023-06-24T05:17:18;26.90;82.70
35746;DHT22;21870;42.812;74.628;2023-06-24T05:19:45;26.70;82.60
35746;DHT22;21870;42.812;74.628;2023-06-24T05:22:11;26.70;86.50
35746;DHT22;21870;42.812;74.628;2023-06-24T05:24:37;26.70;85.90
35746;DHT22;21870;42.812;74.628;2023-06-24T05:27:04;27.00;87.10
35746;DHT22;21870;42.812;74.628;2023-06-24T05:29:32;27.10;84.40
35746;DHT22;21870;42.812;74.628;2023-06-24T05:31:58;27.10;85.10
35746;DHT22;21870;42.812;74.628;2023-06-24T05:34:24;27.40;84.70
35746;DHT22;21870;42.812;74.628;2023-06-24T05:36:50;27.20;82.30
35746;DHT22;21870;42.812;74.628;2023-06-24T05:39:17;27.00;83.00
35746;DHT22;21870;42.812;74.628;2023-06-24T05:41:43;27.10;81.80
35746;DHT22;21870;42.812;74.628;2023-06-24T05:44:09;27.20;81.70
35746;DHT22;21870;42.812;74.628;2023-06-24T05:46:36;27.30;82.50
35746;DHT22;21870;42.812;74.628;2023-06-24T05:49:03;27.30;84.10
35746;DHT22;21870;42.812;74.628;2023-06-24T05:51:29;27.50;84.40
35746;DHT22;21870;42.812;74.628;2023-06-24T05:53:55;27.50;83.10
35746;DHT22;21870;42.812;74.628;2023-06-24T05:56:22;27.60;86.70
35746;DHT22;21870;42.812;74.628;2023-06-24T05:58:48;27.60;85.40
35746;DHT22;21870;42.812;74.628;2023-06-24T06:01:14;27.60;85.10
35746;DHT22;21870;42.812;74.628;2023-06-24T06:03:41;27.80;84.20
35746;DHT22;21870;42.812;74.628;2023-06-24T06:06:07;27.90;85.10
35746;DHT22;21870;42.812;74.628;2023-06-24T06:08:33;28.00;82.80
35746;DHT22;21870;42.812;74.628;2023-06-24T06:11:00;27.80;83.70
35746;DHT22;21870;42.812;74.628;2023-06-24T06:13:28;27.80;80.50
35746;DHT22;21870;42.812;74.628;2023-06-24T06:15:55;28.10;82.80
35746;DHT22;21870;42.812;74.628;2023-06-24T06:18:21;28.00;81.40
35746;DHT22;21870;42.812;74.628;2023-06-24T06:20:48;27.80;79.60
35746;DHT22;21870;42.812;74.628;2023-06-24T06:23:14;27.70;83.10
35746;DHT22;21870;42.812;74.628;2023-06-24T06:25:41;27.80;85.80
35746;DHT22;21870;42.812;74.628;2023-06-24T06:28:07;28.10;83.00
35746;DHT22;21870;42.812;74.628;2023-06-24T06:30:33;28.30;82.60
35746;DHT22;21870;42.812;74.628;2023-06-24T06:32:59;28.50;83.10
35746;DHT22;21870;42.812;74.628;2023-06-24T06:35:25;28.60;82.40
35746;DHT22;21870;42.812;74.628;2023-06-24T06:37:51;28.50;78.60
35746;DHT22;21870;42.812;74.628;2023-06-24T06:40:20;28.50;79.50
35746;DHT22;21870;42.812;74.628;2023-06-24T06:42:46;28.40;82.90
35746;DHT22;21870;42.812;74.628;2023-06-24T06:45:13;28.30;81.00
35746;DHT22;21870;42.812;74.628;2023-06-24T06:47:39;28.30;80.60
35746;DHT22;21870;42.812;74.628;2023-06-24T06:50:06;28.30;80.70
35746;DHT22;21870;42.812;74.628;2023-06-24T06:52:32;28.50;82.50
35746;DHT22;21870;42.812;74.628;2023-06-24T06:55:00;28.60;82.80
35746;DHT22;21870;42.812;74.628;2023-06-24T06:57:26;28.70;83.60
35746;DHT22;21870;42.812;74.628;2023-06-24T06:59:53;28.90;84.00
35746;DHT22;21870;42.812;74.628;2023-06-24T07:02:19;29.00;83.00
35746;DHT22;21870;42.812;74.628;2023-06-24T07:04:45;28.80;82.10
35746;DHT22;21870;42.812;74.628;2023-06-24T07:07:13;28.90;80.90
35746;DHT22;21870;42.812;74.628;2023-06-24T07:09:40;29.00;79.10
35746;DHT22;21870;42.812;74.628;2023-06-24T07:12:07;29.10;80.00
35746;DHT22;21870;42.812;74.628;2023-06-24T07:14:33;29.00;79.20
35746;DHT22;21870;42.812;74.628;2023-06-24T07:16:59;29.00;80.50
35746;DHT22;21870;42.812;74.628;2023-06-24T07:19:25;29.20;79.20
35746;DHT22;21870;42.812;74.628;2023-06-24T07:21:51;29.30;78.40
35746;DHT22;21870;42.812;74.628;2023-06-24T07:24:18;29.20;78.80
35746;DHT22;21870;42.812;74.628;2023-06-24T07:26:44;29.00;77.50
35746;DHT22;21870;42.812;74.628;2023-06-24T07:29:10;29.10;77.90
35746;DHT22;21870;42.812;74.628;2023-06-24T07:31:36;29.30;81.30
35746;DHT22;21870;42.812;74.628;2023-06-24T07:34:03;29.50;80.30
35746;DHT22;21870;42.812;74.628;2023-06-24T07:36:29;29.40;82.30
35746;DHT22;21870;42.812;74.628;2023-06-24T07:38:57;29.50;82.50
35746;DHT22;21870;42.812;74.628;2023-06-24T07:41:23;29.70;77.70
35746;DHT22;21870;42.812;74.628;2023-06-24T07:43:49;29.80;81.50
35746;DHT22;21870;42.812;74.628;2023-06-24T07:46:16;29.90;79.70
35746;DHT22;21870;42.812;74.628;2023-06-24T07:48:42;29.90;81.70
35746;DHT22;21870;42.812;74.628;2023-06-24T07:51:08;29.80;77.50
35746;DHT22;21870;42.812;74.628;2023-06-24T07:53:34;29.80;77.10
35746;DHT22;21870;42.812;74.628;2023-06-24T07:56:00;29.90;77.20
35746;DHT22;21870;42.812;74.628;2023-06-24T07:58:26;30.00;77.60
35746;DHT22;21870;42.812;74.628;2023-06-24T08:00:53;30.10;80.10
35746;DHT22;21870;42.812;74.628;2023-06-24T08:03:19;30.10;79.60
35746;DHT22;21870;42.812;74.628;2023-06-24T08:05:47;30.10;80.00
35746;DHT22;21870;42.812;74.628;2023-06-24T08:08:15;30.00;81.80
35746;DHT22;21870;42.812;74.628;2023-06-24T08:10:41;30.20;84.00
35746;DHT22;21870;42.812;74.628;2023-06-24T08:13:07;30.30;80.00
35746;DHT22;21870;42.812;74.628;2023-06-24T08:15:33;30.30;81.30
35746;DHT22;21870;42.812;74.628;2023-06-24T08:17:59;30.20;81.90
35746;DHT22;21870;42.812;74.628;2023-06-24T08:20:26;30.40;78.90
35746;DHT22;21870;42.812;74.628;2023-06-24T08:22:52;30.40;80.20
35746;DHT22;21870;42.812;74.628;2023-06-24T08:25:18;30.50;76.90
35746;DHT22;21870;42.812;74.628;2023-06-24T08:27:44;30.50;76.80
35746;DHT22;21870;42.812;74.628;2023-06-24T08:30:13;30.50;79.00
35746;DHT22;21870;42.812;74.628;2023-06-24T08:32:41;30.50;79.50
35746;DHT22;21870;42.812;74.628;2023-06-24T08:35:08;30.70;79.60
35746;DHT22;21870;42.812;74.628;2023-06-24T08:37:36;30.80;78.80
35746;DHT22;21870;42.812;74.628;2023-06-24T08:40:02;30.70;76.50
35746;DHT22;21870;42.812;74.628;2023-06-24T08:42:30;30.80;78.10
35746;DHT22;21870;42.812;74.628;2023-06-24T08:44:56;30.80;77.10
35746;DHT22;21870;42.812;74.628;2023-06-24T08:47:24;30.80;76.60
35746;DHT22;21870;42.812;74.628;2023-06-24T08:49:59;30.80;79.00
35746;DHT22;21870;42.812;74.628;2023-06-24T08:52:32;30.80;78.90
35746;DHT22;21870;42.812;74.628;2023-06-24T08:54:59;30.90;77.50
35746;DHT22;21870;42.812;74.628;2023-06-24T08:57:26;30.90;77.60
35746;DHT22;21870;42.812;74.628;2023-06-24T08:59:53;30.80;78.90
35746;DHT22;21870;42.812;74.628;2023-06-24T09:02:19;30.80;77.90
35746;DHT22;21870;42.812;74.628;2023-06-24T09:04:45;30.80;74.80
35746;DHT22;21870;42.812;74.628;2023-06-24T09:07:11;30.80;77.40
35746;DHT22;21870;42.812;74.628;2023-06-24T09:09:44;30.70;76.20
35746;DHT22;21870;42.812;74.628;2023-06-24T09:12:13;30.60;78.10
35746;DHT22;21870;42.812;74.628;2023-06-24T09:14:39;30.70;80.30
35746;DHT22;21870;42.812;74.628;2023-06-24T09:17:06;30.90;77.60
35746;DHT22;21870;42.812;74.628;2023-06-24T09:19:35;30.40;77.50
35746;DHT22;21870;42.812;74.628;2023-06-24T09:22:09;30.40;77.80
35746;DHT22;21870;42.812;74.628;2023-06-24T09:24:44;30.20;77.70
35746;DHT22;21870;42.812;74.628;2023-06-24T09:27:15;30.30;79.00
35746;DHT22;21870;42.812;74.628;2023-06-24T09:29:42;30.30;76.50
35746;DHT22;21870;42.812;74.628;2023-06-24T09:32:09;30.30;77.30
35746;DHT22;21870;42.812;74.628;2023-06-24T09:34:35;30.40;79.20
35746;DHT22;21870;42.812;74.628;2023-06-24T09:37:01;30.60;79.20
35746;DHT22;21870;42.812;74.628;2023-06-24T09:39:28;30.60;76.20
35746;DHT22;21870;42.812;74.628;2023-06-24T09:42:01;30.80;77.80
35746;DHT22;21870;42.812;74.628;2023-06-24T09:44:27;30.90;78.40
35746;DHT22;21870;42.812;74.628;2023-06-24T09:46:55;31.10;79.10
35746;DHT22;21870;42.812;74.628;2023-06-24T09:49:24;31.00;78.80
35746;DHT22;21870;42.812;74.628;2023-06-24T09:51:57;30.90;77.10
35746;DHT22;21870;42.812;74.628;2023-06-24T09:54:27;31.00;81.70
35746;DHT22;21870;42.812;74.628;2023-06-24T09:56:54;31.10;77.30
35746;DHT22;21870;42.812;74.628;2023-06-24T09:59:22;31.20;77.80
35746;DHT22;21870;42.812;74.628;2023-06-24T10:01:53;31.20;76.50
35746;DHT22;21870;42.812;74.628;2023-06-24T10:04:20;31.10;76.10
35746;DHT22;21870;42.812;74.628;2023-06-24T10:06:50;31.00;75.70
35746;DHT22;21870;42.812;74.628;2023-06-24T10:09:16;30.90;76.20
35746;DHT22;21870;42.812;74.628;2023-06-24T10:11:45;30.90;74.90
35746;DHT22;21870;42.812;74.628;2023-06-24T10:14:12;30.80;74.90
35746;DHT22;21870;42.812;74.628;2023-06-24T10:16:38;30.90;78.20
35746;DHT22;21870;42.812;74.628;2023-06-24T10:19:05;30.90;77.40
35746;DHT22;21870;42.812;74.628;2023-06-24T10:21:50;30.80;76.70
35746;DHT22;21870;42.812;74.628;2023-06-24T10:24:40;30.80;75.50
35746;DHT22;21870;42.812;74.628;2023-06-24T10:27:19;30.60;74.00
35746;DHT22;21870;42.812;74.628;2023-06-24T10:29:52;30.70;77.30
35746;DHT22;21870;42.812;74.628;2023-06-24T10:32:19;30.80;78.50
35746;DHT22;21870;42.812;74.628;2023-06-24T10:34:49;30.70;75.80
35746;DHT22;21870;42.812;74.628;2023-06-24T10:37:26;30.70;77.70
35746;DHT22;21870;42.812;74.628;2023-06-24T10:40:00;30.70;75.40
35746;DHT22;21870;42.812;74.628;2023-06-24T10:45:02;31.00;77.40
35746;DHT22;21870;42.812;74.628;2023-06-24T10:47:49;31.00;76.80
35746;DHT22;21870;42.812;74.628;2023-06-24T10:50:20;30.90;76.50
35746;DHT22;21870;42.812;74.628;2023-06-24T10:52:48;31.00;77.60
35746;DHT22;21870;42.812;74.628;2023-06-24T10:55:19;30.90;75.90
35746;DHT22;21870;42.812;74.628;2023-06-24T10:57:45;30.80;75.90
35746;DHT22;21870;42.812;74.628;2023-06-24T11:00:13;30.90;77.80
35746;DHT22;21870;42.812;74.628;2023-06-24T11:02:39;30.90;75.90
35746;DHT22;21870;42.812;74.628;2023-06-24T11:05:06;31.00;78.00
35746;DHT22;21870;42.812;74.628;2023-06-24T11:07:34;31.00;78.90
35746;DHT22;21870;42.812;74.628;2023-06-24T11:10:06;30.90;77.60
35746;DHT22;21870;42.812;74.628;2023-06-24T11:12:37;30.90;76.80
35746;DHT22;21870;42.812;74.628;2023-06-24T11:15:09;30.90;77.00
35746;DHT22;21870;42.812;74.628;2023-06-24T11:17:36;30.70;75.90
35746;DHT22;21870;42.812;74.628;2023-06-24T11:20:10;30.70;74.10
35746;DHT22;21870;42.812;74.628;2023-06-24T11:22:36;30.50;77.10
35746;DHT22;21870;42.812;74.628;2023-06-24T11:25:03;30.40;75.20
35746;DHT22;21870;42.812;74.628;2023-06-24T11:27:32;30.40;74.80
35746;DHT22;21870;42.812;74.628;2023-06-24T11:29:59;30.40;77.20
35746;DHT22;21870;42.812;74.628;2023-06-24T11:32:36;30.40;74.90
35746;DHT22;21870;42.812;74.628;2023-06-24T11:35:05;30.30;74.60
35746;DHT22;21870;42.812;74.628;2023-06-24T11:37:32;30.30;78.20
35746;DHT22;21870;42.812;74.628;2023-06-24T11:40:05;30.20;75.60
35746;DHT22;21870;42.812;74.628;2023-06-24T11:42:41;30.10;77.30
35746;DHT22;21870;42.812;74.628;2023-06-24T11:45:11;30.00;78.20
35746;DHT22;21870;42.812;74.628;2023-06-24T11:47:38;30.00;76.40
35746;DHT22;21870;42.812;74.628;2023-06-24T11:50:06;29.90;77.50
35746;DHT22;21870;42.812;74.628;2023-06-24T11:55:12;29.80;74.20
35746;DHT22;21870;42.812;74.628;2023-06-24T11:57:50;29.60;75.20
35746;DHT22;21870;42.812;74.628;2023-06-24T12:00:29;29.50;75.40
35746;DHT22;21870;42.812;74.628;2023-06-24T12:03:00;29.40;77.70
35746;DHT22;21870;42.812;74.628;2023-06-24T12:05:34;29.50;78.70
35746;DHT22;21870;42.812;74.628;2023-06-24T12:08:05;29.40;78.30
35746;DHT22;21870;42.812;74.628;2023-06-24T12:10:32;29.50;75.60
35746;DHT22;21870;42.812;74.628;2023-06-24T12:13:01;29.40;76.00
35746;DHT22;21870;42.812;74.628;2023-06-24T12:15:31;29.30;77.40
35746;DHT22;21870;42.812;74.628;2023-06-24T12:17:58;29.10;76.60
35746;DHT22;21870;42.812;74.628;2023-06-24T12:20:25;29.00;78.40
35746;DHT22;21870;42.812;74.628;2023-06-24T12:22:51;28.90;77.60
35746;DHT22;21870;42.812;74.628;2023-06-24T12:25:18;28.70;78.90
35746;DHT22;21870;42.812;74.628;2023-06-24T12:27:44;28.70;79.60
35746;DHT22;21870;42.812;74.628;2023-06-24T12:30:11;28.70;80.00
35746;DHT22;21870;42.812;74.628;2023-06-24T12:32:38;28.70;79.80
35746;DHT22;21870;42.812;74.628;2023-06-24T12:35:04;28.60;79.30
35746;DHT22;21870;42.812;74.628;2023-06-24T12:37:34;28.60;78.40
35746;DHT22;21870;42.812;74.628;2023-06-24T12:40:01;28.50;79.30
35746;DHT22;21870;42.812;74.628;2023-06-24T12:42:27;28.40;79.60
35746;DHT22;21870;42.812;74.628;2023-06-24T12:44:54;28.30;78.40
35746;DHT22;21870;42.812;74.628;2023-06-24T12:47:20;28.20;78.90
35746;DHT22;21870;42.812;74.628;2023-06-24T12:49:47;28.10;78.90
35746;DHT22;21870;42.812;74.628;2023-06-24T12:52:14;28.10;78.70
35746;DHT22;21870;42.812;74.628;2023-06-24T12:54:41;28.00;78.20
35746;DHT22;21870;42.812;74.628;2023-06-24T12:57:07;28.00;77.80
35746;DHT22;21870;42.812;74.628;2023-06-24T12:59:33;28.00;77.60
35746;DHT22;21870;42.812;74.628;2023-06-24T13:01:59;27.90;78.00
35746;DHT22;21870;42.812;74.628;2023-06-24T13:04:26;27.80;78.70
35746;DHT22;21870;42.812;74.628;2023-06-24T13:06:53;27.80;78.10
35746;DHT22;21870;42.812;74.628;2023-06-24T13:09:22;27.70;79.20
35746;DHT22;21870;42.812;74.628;2023-06-24T13:11:48;27.70;79.10
35746;DHT22;21870;42.812;74.628;2023-06-24T13:14:15;27.70;79.20
35746;DHT22;21870;42.812;74.628;2023-06-24T13:16:41;27.70;79.70
35746;DHT22;21870;42.812;74.628;2023-06-24T13:19:07;27.50;79.20
35746;DHT22;21870;42.812;74.628;2023-06-24T13:21:33;27.50;79.50
35746;DHT22;21870;42.812;74.628;2023-06-24T13:23:59;27.40;78.60
35746;DHT22;21870;42.812;74.628;2023-06-24T13:26:25;27.40;78.30
35746;DHT22;21870;42.812;74.628;2023-06-24T13:28:51;27.40;78.70
35746;DHT22;21870;42.812;74.628;2023-06-24T13:31:18;27.30;78.50
35746;DHT22;21870;42.812;74.628;2023-06-24T13:33:44;27.30;78.80
35746;DHT22;21870;42.812;74.628;2023-06-24T13:36:27;27.30;79.50
35746;DHT22;21870;42.812;74.628;2023-06-24T13:38:54;27.30;79.80
35746;DHT22;21870;42.812;74.628;2023-06-24T13:41:20;27.30;81.10
35746;DHT22;21870;42.812;74.628;2023-06-24T13:43:46;27.30;80.40
35746;DHT22;21870;42.812;74.628;2023-06-24T13:46:12;27.30;80.70
35746;DHT22;21870;42.812;74.628;2023-06-24T13:48:38;27.30;80.40
35746;DHT22;21870;42.812;74.628;2023-06-24T13:51:04;27.20;80.10
35746;DHT22;21870;42.812;74.628;2023-06-24T13:53:32;27.30;79.80
35746;DHT22;21870;42.812;74.628;2023-06-24T13:55:58;27.20;78.60
35746;DHT22;21870;42.812;74.628;2023-06-24T13:58:30;27.20;78.40
35746;DHT22;21870;42.812;74.628;2023-06-24T14:00:56;27.20;77.90
35746;DHT22;21870;42.812;74.628;2023-06-24T14:03:22;27.10;78.10
35746;DHT22;21870;42.812;74.628;2023-06-24T14:05:49;27.10;78.60
35746;DHT22;21870;42.812;74.628;2023-06-24T14:08:15;27.00;78.20
35746;DHT22;21870;42.812;74.628;2023-06-24T14:10:41;27.00;77.90
35746;DHT22;21870;42.812;74.628;2023-06-24T14:13:07;26.90;77.70
35746;DHT22;21870;42.812;74.628;2023-06-24T14:15:33;26.90;78.40
35746;DHT22;21870;42.812;74.628;2023-06-24T14:18:02;26.90;78.40
35746;DHT22;21870;42.812;74.628;2023-06-24T14:20:28;26.70;78.60
35746;DHT22;21870;42.812;74.628;2023-06-24T14:22:54;26.80;79.30
35746;DHT22;21870;42.812;74.628;2023-06-24T14:25:20;26.80;79.10
35746;DHT22;21870;42.812;74.628;2023-06-24T14:27:46;26.80;78.30
35746;DHT22;21870;42.812;74.628;2023-06-24T14:30:13;26.80;78.30
35746;DHT22;21870;42.812;74.628;2023-06-24T14:32:39;26.70;78.30
35746;DHT22;21870;42.812;74.628;2023-06-24T14:35:05;26.70;79.80
35746;DHT22;21870;42.812;74.628;2023-06-24T14:37:31;26.70;79.60
35746;DHT22;21870;42.812;74.628;2023-06-24T14:39:57;26.60;80.10
35746;DHT22;21870;42.812;74.628;2023-06-24T14:42:23;26.50;81.20
35746;DHT22;21870;42.812;74.628;2023-06-24T14:44:50;26.50;79.60
35746;DHT22;21870;42.812;74.628;2023-06-24T14:47:16;26.50;79.50
35746;DHT22;21870;42.812;74.628;2023-06-24T14:49:42;26.40;80.70
35746;DHT22;21870;42.812;74.628;2023-06-24T14:52:08;26.40;81.40
35746;DHT22;21870;42.812;74.628;2023-06-24T14:54:34;26.30;85.20
35746;DHT22;21870;42.812;74.628;2023-06-24T14:57:00;26.20;84.60
35746;DHT22;21870;42.812;74.628;2023-06-24T14:59:26;26.00;83.50
35746;DHT22;21870;42.812;74.628;2023-06-24T15:01:52;25.70;82.90
35746;DHT22;21870;42.812;74.628;2023-06-24T15:04:18;25.60;83.10
35746;DHT22;21870;42.812;74.628;2023-06-24T15:06:44;25.40;83.00
35746;DHT22;21870;42.812;74.628;2023-06-24T15:09:11;25.20;83.80
35746;DHT22;21870;42.812;74.628;2023-06-24T15:11:37;25.20;84.40
35746;DHT22;21870;42.812;74.628;2023-06-24T15:14:03;25.20;84.60
35746;DHT22;21870;42.812;74.628;2023-06-24T15:16:29;25.10;85.10
35746;DHT22;21870;42.812;74.628;2023-06-24T15:18:55;24.90;85.80
35746;DHT22;21870;42.812;74.628;2023-06-24T15:21:21;24.80;85.90
35746;DHT22;21870;42.812;74.628;2023-06-24T15:23:47;24.70;86.20
35746;DHT22;21870;42.812;74.628;2023-06-24T15:26:13;24.50;86.90
35746;DHT22;21870;42.812;74.628;2023-06-24T15:28:40;24.40;87.20
35746;DHT22;21870;42.812;74.628;2023-06-24T15:31:06;24.30;87.80
35746;DHT22;21870;42.812;74.628;2023-06-24T15:33:32;24.30;88.30
35746;DHT22;21870;42.812;74.628;2023-06-24T15:35:58;24.20;89.00